createdAt,value
2017-12-26T00:02:01.763Z,1.70
2017-12-26T00:04:29.294Z,1.80
2017-12-26T00:06:56.848Z,1.70
2017-12-26T00:09:24.390Z,1.70
2017-12-26T00:11:52.679Z,1.70
2017-12-26T00:14:20.224Z,1.60
2017-12-26T00:16:47.794Z,1.70
2017-12-26T00:19:16.120Z,1.60
2017-12-26T00:21:43.665Z,1.60
2017-12-26T00:24:11.970Z,1.60
2017-12-26T00:26:39.519Z,1.60
2017-12-26T00:29:07.092Z,1.60
2017-12-26T00:31:34.656Z,1.60
2017-12-26T00:34:02.235Z,1.60
2017-12-26T00:36:29.777Z,1.60
2017-12-26T00:38:57.350Z,1.60
2017-12-26T00:41:24.885Z,1.60
2017-12-26T00:43:52.438Z,1.60
2017-12-26T00:46:20.084Z,1.50
2017-12-26T00:48:48.379Z,1.40
2017-12-26T00:51:15.967Z,1.40
2017-12-26T00:56:09.522Z,1.30
2017-12-26T00:58:37.094Z,1.30
2017-12-26T01:01:04.612Z,1.40
2017-12-26T01:03:32.164Z,1.60
2017-12-26T01:05:59.687Z,1.40
2017-12-26T01:08:27.239Z,1.40
2017-12-26T01:10:55.605Z,1.60
2017-12-26T01:13:23.131Z,1.50
2017-12-26T01:15:50.734Z,1.60
2017-12-26T01:18:19.011Z,1.60
2017-12-26T01:20:46.713Z,1.50
2017-12-26T01:23:14.984Z,1.50
2017-12-26T01:25:42.707Z,1.30
2017-12-26T01:28:11.201Z,1.50
2017-12-26T01:30:38.712Z,1.40
2017-12-26T01:33:06.247Z,1.40
2017-12-26T01:35:33.796Z,1.40
2017-12-26T01:38:01.350Z,1.40
2017-12-26T01:40:28.928Z,1.40
2017-12-26T01:42:56.468Z,1.30
2017-12-26T01:45:23.982Z,1.40
2017-12-26T01:47:52.303Z,1.40
2017-12-26T01:50:20.602Z,1.40
2017-12-26T01:52:48.137Z,1.30
2017-12-26T01:55:16.458Z,1.40
2017-12-26T01:57:44.072Z,1.40
2017-12-26T02:00:11.624Z,1.40
2017-12-26T02:02:39.152Z,1.40
2017-12-26T02:05:06.800Z,1.40
2017-12-26T02:07:34.374Z,1.40
2017-12-26T02:10:02.699Z,1.30
2017-12-26T02:12:30.228Z,1.30
2017-12-26T02:14:57.768Z,1.30
2017-12-26T02:17:26.118Z,1.30
2017-12-26T02:19:53.694Z,1.30
2017-12-26T02:22:21.255Z,1.30
2017-12-26T02:24:49.548Z,1.30
2017-12-26T02:27:17.134Z,1.20
2017-12-26T02:29:45.443Z,1.00
2017-12-26T02:32:14.646Z,1.30
2017-12-26T02:34:42.211Z,1.10
2017-12-26T02:37:09.752Z,1.20
2017-12-26T02:39:38.048Z,1.30
2017-12-26T02:42:06.328Z,1.20
2017-12-26T02:44:33.861Z,1.20
2017-12-26T02:47:02.156Z,1.30
2017-12-26T02:49:30.436Z,1.30
2017-12-26T02:51:58.035Z,1.30
2017-12-26T02:54:25.562Z,1.30
2017-12-26T02:56:53.851Z,1.20
2017-12-26T02:59:21.379Z,1.20
2017-12-26T03:01:49.685Z,1.30
2017-12-26T03:04:17.243Z,1.30
2017-12-26T03:06:45.512Z,1.30
2017-12-26T03:09:13.046Z,1.30
2017-12-26T03:11:40.572Z,1.20
2017-12-26T03:14:08.111Z,1.10
2017-12-26T03:16:35.651Z,1.20
2017-12-26T03:19:03.993Z,1.10
2017-12-26T03:21:31.591Z,1.10
2017-12-26T03:23:59.933Z,1.20
2017-12-26T03:26:27.478Z,1.20
2017-12-26T03:28:55.788Z,1.30
2017-12-26T03:31:23.301Z,1.30
2017-12-26T03:33:51.692Z,1.40
2017-12-26T03:36:19.209Z,1.40
2017-12-26T03:38:46.733Z,1.40
2017-12-26T03:41:14.303Z,1.50
2017-12-26T03:43:48.522Z,1.60
2017-12-26T03:46:16.109Z,1.50
2017-12-26T03:48:43.641Z,1.40
2017-12-26T03:51:12.087Z,1.50
2017-12-26T03:53:39.607Z,1.50
2017-12-26T03:56:07.892Z,1.60
2017-12-26T03:58:35.433Z,1.60
2017-12-26T04:01:02.937Z,1.60
2017-12-26T04:03:30.486Z,1.40
2017-12-26T04:05:58.790Z,1.60
2017-12-26T04:08:27.108Z,1.70
2017-12-26T04:10:54.652Z,1.70
2017-12-26T04:13:22.942Z,1.80
2017-12-26T04:15:51.293Z,1.80
2017-12-26T04:18:18.822Z,1.80
2017-12-26T04:20:46.394Z,1.80
2017-12-26T04:23:13.941Z,1.80
2017-12-26T04:25:41.533Z,1.90
2017-12-26T04:28:09.060Z,1.90
2017-12-26T04:30:37.361Z,1.90
2017-12-26T04:33:04.917Z,2.00
2017-12-26T04:35:32.453Z,2.00
2017-12-26T04:38:00.792Z,2.10
2017-12-26T04:40:28.301Z,2.10
2017-12-26T04:42:55.833Z,2.20
2017-12-26T04:47:59.156Z,2.10
2017-12-26T04:50:27.564Z,2.20
2017-12-26T04:55:40.517Z,2.20
2017-12-26T04:58:08.038Z,2.20
2017-12-26T05:00:36.319Z,2.20
2017-12-26T05:03:04.680Z,2.20
2017-12-26T05:05:33.105Z,2.20
2017-12-26T05:08:00.684Z,2.20
2017-12-26T05:10:28.986Z,2.30
2017-12-26T05:12:56.545Z,2.20
2017-12-26T05:15:24.163Z,2.20
2017-12-26T05:17:51.727Z,2.30
2017-12-26T05:20:25.398Z,2.30
2017-12-26T05:22:53.717Z,2.30
2017-12-26T05:25:21.245Z,2.30
2017-12-26T05:27:49.390Z,2.30
2017-12-26T05:30:16.947Z,2.40
2017-12-26T05:32:44.465Z,2.30
2017-12-26T05:35:11.995Z,2.40
2017-12-26T05:37:39.540Z,2.40
2017-12-26T05:40:07.115Z,2.40
2017-12-26T05:42:35.463Z,2.50
2017-12-26T05:45:02.977Z,2.50
2017-12-26T05:47:30.510Z,2.40
2017-12-26T05:49:58.819Z,2.40
2017-12-26T05:52:26.339Z,2.40
2017-12-26T05:54:53.844Z,2.40
2017-12-26T05:57:21.420Z,2.50
2017-12-26T05:59:48.958Z,2.60
2017-12-26T06:02:17.264Z,2.60
2017-12-26T06:04:44.792Z,2.60
2017-12-26T06:07:12.418Z,2.70
2017-12-26T06:09:40.087Z,2.80
2017-12-26T06:12:07.619Z,2.80
2017-12-26T06:14:35.197Z,2.80
2017-12-26T06:17:02.724Z,2.80
2017-12-26T06:19:30.287Z,2.80
2017-12-26T06:21:57.816Z,2.90
2017-12-26T06:24:25.344Z,2.90
2017-12-26T06:26:52.908Z,2.90
2017-12-26T06:29:20.479Z,3.00
2017-12-26T06:31:48.749Z,2.90
2017-12-26T06:34:16.347Z,2.90
2017-12-26T06:36:44.774Z,3.00
2017-12-26T06:39:12.468Z,2.90
2017-12-26T06:41:40.224Z,2.90
2017-12-26T06:44:07.823Z,3.00
2017-12-26T06:46:36.187Z,3.00
2017-12-26T06:49:03.770Z,3.00
2017-12-26T06:51:32.415Z,3.00
2017-12-26T06:54:00.009Z,3.00
2017-12-26T06:56:27.566Z,3.00
2017-12-26T06:58:55.855Z,3.00
2017-12-26T07:01:23.393Z,3.00
2017-12-26T07:03:50.985Z,3.10
2017-12-26T07:06:18.504Z,3.20
2017-12-26T07:08:46.125Z,3.20
2017-12-26T07:11:13.690Z,3.20
2017-12-26T07:13:41.193Z,3.30
2017-12-26T07:16:08.758Z,3.30
2017-12-26T07:18:36.297Z,3.30
2017-12-26T07:21:09.489Z,3.30
2017-12-26T07:23:37.011Z,3.40
2017-12-26T07:26:05.286Z,3.40
2017-12-26T07:28:33.757Z,3.40
2017-12-26T07:31:02.043Z,3.40
2017-12-26T07:33:29.607Z,3.40
2017-12-26T07:35:57.152Z,3.50
2017-12-26T07:38:25.447Z,3.50
2017-12-26T07:40:53.010Z,3.50
2017-12-26T07:43:20.712Z,3.60
2017-12-26T07:45:48.240Z,3.60
2017-12-26T07:48:15.795Z,3.60
2017-12-26T07:50:43.319Z,3.70
2017-12-26T07:53:11.602Z,3.90
2017-12-26T07:55:39.864Z,4.10
2017-12-26T07:58:08.204Z,4.20
2017-12-26T08:00:35.718Z,4.20
2017-12-26T08:03:03.226Z,4.30
2017-12-26T08:05:30.918Z,4.40
2017-12-26T08:07:59.211Z,4.60
2017-12-26T08:10:26.825Z,4.60
2017-12-26T08:12:54.472Z,4.80
2017-12-26T08:15:22.132Z,4.90
2017-12-26T08:17:49.671Z,4.90
2017-12-26T08:20:17.196Z,5.10
2017-12-26T08:22:45.486Z,5.20
2017-12-26T08:25:13.011Z,5.20
2017-12-26T08:27:40.540Z,5.30
2017-12-26T08:30:08.099Z,5.50
2017-12-26T08:32:35.625Z,5.50
2017-12-26T08:35:03.189Z,5.60
2017-12-26T08:37:30.756Z,5.70
2017-12-26T08:39:58.397Z,5.80
2017-12-26T08:42:25.943Z,5.80
2017-12-26T08:44:54.260Z,5.90
2017-12-26T08:47:21.765Z,5.90
2017-12-26T08:49:50.085Z,6.10
2017-12-26T08:52:17.612Z,6.10
2017-12-26T08:54:45.166Z,6.40
2017-12-26T08:57:12.699Z,6.80
2017-12-26T08:59:40.366Z,7.00
2017-12-26T09:02:07.891Z,7.30
2017-12-26T09:04:35.398Z,7.40
2017-12-26T09:07:03.674Z,7.90
2017-12-26T09:09:31.956Z,8.00
2017-12-26T09:12:00.426Z,8.00
2017-12-26T09:14:29.057Z,8.50
2017-12-26T09:16:57.397Z,8.70
2017-12-26T09:19:24.921Z,8.70
2017-12-26T09:21:52.566Z,8.70
2017-12-26T09:24:20.652Z,8.50
2017-12-26T09:26:48.195Z,8.40
2017-12-26T09:29:15.724Z,8.40
2017-12-26T09:31:43.299Z,8.50
2017-12-26T09:34:10.818Z,8.70
2017-12-26T09:36:38.371Z,8.90
2017-12-26T09:39:05.989Z,8.80
2017-12-26T09:41:33.527Z,8.80
2017-12-26T09:44:01.134Z,8.70
2017-12-26T09:46:29.452Z,8.50
2017-12-26T09:48:56.999Z,8.50
2017-12-26T09:51:24.522Z,8.50
2017-12-26T09:53:52.870Z,8.90
2017-12-26T09:56:20.368Z,8.90
2017-12-26T09:58:49.569Z,9.60
2017-12-26T10:01:17.159Z,9.50
2017-12-26T10:03:44.753Z,9.90
2017-12-26T10:06:12.270Z,10.20
2017-12-26T10:08:39.805Z,10.50
2017-12-26T10:11:07.360Z,10.70
2017-12-26T10:13:34.923Z,10.80
2017-12-26T10:16:02.456Z,11.10
2017-12-26T10:18:30.723Z,11.30
2017-12-26T10:20:58.285Z,11.30
2017-12-26T10:23:25.814Z,11.40
2017-12-26T10:25:53.360Z,11.40
2017-12-26T10:28:20.920Z,11.20
2017-12-26T10:30:49.346Z,11.30
2017-12-26T10:33:18.688Z,11.40
2017-12-26T10:35:46.331Z,11.40
2017-12-26T10:38:13.854Z,11.60
2017-12-26T10:40:42.404Z,11.60
2017-12-26T10:43:10.712Z,11.50
2017-12-26T10:45:39.088Z,11.50
2017-12-26T10:48:06.656Z,11.50
2017-12-26T10:50:34.972Z,11.50
2017-12-26T10:53:02.565Z,11.50
2017-12-26T10:55:31.250Z,11.50
2017-12-26T10:57:58.788Z,11.60
2017-12-26T11:00:26.352Z,11.60
2017-12-26T11:02:53.862Z,11.80
2017-12-26T11:05:21.428Z,11.90
2017-12-26T11:07:49.010Z,12.10
2017-12-26T11:10:16.638Z,12.10
2017-12-26T11:12:45.140Z,12.50
2017-12-26T11:15:12.654Z,12.50
2017-12-26T11:17:40.263Z,13.00
2017-12-26T11:20:07.817Z,13.50
2017-12-26T11:22:35.358Z,13.80
2017-12-26T11:25:02.896Z,14.30
2017-12-26T11:27:31.182Z,14.10
2017-12-26T11:29:59.673Z,13.70
2017-12-26T11:32:27.181Z,13.70
2017-12-26T11:34:54.726Z,13.30
2017-12-26T11:37:22.285Z,12.90
2017-12-26T11:39:49.909Z,12.40
2017-12-26T11:42:18.522Z,12.10
2017-12-26T11:44:46.607Z,11.80
2017-12-26T11:47:14.123Z,11.70
2017-12-26T11:49:41.685Z,11.40
2017-12-26T11:52:09.228Z,11.30
2017-12-26T11:54:37.523Z,11.00
2017-12-26T11:57:05.059Z,11.00
2017-12-26T11:59:33.362Z,10.90
2017-12-26T12:02:00.959Z,10.80
2017-12-26T12:04:28.490Z,10.80
2017-12-26T12:06:56.068Z,10.80
2017-12-26T12:09:23.599Z,10.80
2017-12-26T12:11:51.181Z,10.70
2017-12-26T12:14:18.736Z,10.60
2017-12-26T12:16:46.252Z,10.50
2017-12-26T12:19:13.785Z,10.40
2017-12-26T12:21:42.178Z,10.30
2017-12-26T12:24:09.707Z,10.30
2017-12-26T12:26:37.351Z,10.20
2017-12-26T12:29:04.979Z,10.20
2017-12-26T12:31:32.541Z,10.20
2017-12-26T12:34:00.070Z,10.20
2017-12-26T12:36:27.589Z,10.20
2017-12-26T12:38:56.135Z,10.30
2017-12-26T12:41:23.640Z,10.20
2017-12-26T12:43:51.169Z,10.30
2017-12-26T12:46:18.685Z,10.30
2017-12-26T12:48:46.263Z,10.30
2017-12-26T12:51:14.057Z,10.20
2017-12-26T12:53:41.599Z,10.20
2017-12-26T12:56:09.301Z,10.20
2017-12-26T12:58:37.639Z,10.10
2017-12-26T13:01:05.196Z,10.00
2017-12-26T13:03:32.736Z,10.10
2017-12-26T13:06:00.352Z,10.10
2017-12-26T13:08:28.732Z,10.10
2017-12-26T13:10:57.046Z,10.10
2017-12-26T13:13:24.615Z,10.10
2017-12-26T13:15:52.147Z,10.10
2017-12-26T13:18:19.677Z,10.00
2017-12-26T13:20:47.253Z,9.90
2017-12-26T13:23:15.664Z,9.70
2017-12-26T13:25:43.188Z,9.70
2017-12-26T13:28:11.542Z,9.60
2017-12-26T13:30:40.465Z,9.60
2017-12-26T13:33:07.971Z,9.60
2017-12-26T13:35:35.542Z,9.60
2017-12-26T13:38:05.749Z,9.70
2017-12-26T13:40:33.355Z,9.60
2017-12-26T13:43:01.018Z,9.60
2017-12-26T13:45:28.569Z,9.60
2017-12-26T13:47:56.234Z,9.60
2017-12-26T13:50:24.552Z,9.50
2017-12-26T13:52:52.094Z,9.40
2017-12-26T13:55:19.607Z,9.40
2017-12-26T13:57:47.916Z,9.20
2017-12-26T14:00:15.494Z,9.20
2017-12-26T14:02:43.048Z,9.10
2017-12-26T14:05:10.786Z,9.10
2017-12-26T14:07:38.321Z,9.10
2017-12-26T14:10:05.969Z,8.90
2017-12-26T14:12:33.526Z,8.90
2017-12-26T14:15:01.045Z,8.90
2017-12-26T14:17:28.578Z,8.90
2017-12-26T14:19:56.110Z,8.90
2017-12-26T14:22:24.421Z,8.90
2017-12-26T14:24:53.716Z,8.80
2017-12-26T14:27:21.243Z,8.80
2017-12-26T14:29:48.776Z,8.80
2017-12-26T14:32:16.465Z,8.70
2017-12-26T14:34:44.843Z,8.60
2017-12-26T14:37:13.161Z,8.50
2017-12-26T14:39:40.667Z,8.50
2017-12-26T14:42:08.278Z,8.50
2017-12-26T14:44:35.777Z,8.50
2017-12-26T14:47:03.631Z,8.50
2017-12-26T14:49:31.206Z,8.50
2017-12-26T14:51:58.765Z,8.50
2017-12-26T14:54:26.279Z,8.30
2017-12-26T14:56:53.827Z,8.30
2017-12-26T14:59:21.396Z,8.20
2017-12-26T15:01:48.912Z,8.20
2017-12-26T15:04:17.254Z,8.10
2017-12-26T15:06:44.782Z,8.10
2017-12-26T15:09:12.465Z,8.10
2017-12-26T15:11:40.781Z,8.10
2017-12-26T15:14:09.192Z,8.10
2017-12-26T15:16:36.758Z,8.10
2017-12-26T15:19:04.274Z,8.00
2017-12-26T15:21:32.576Z,7.90
2017-12-26T15:24:00.151Z,7.90
2017-12-26T15:26:27.679Z,7.90
2017-12-26T15:28:55.208Z,7.90
2017-12-26T15:31:22.834Z,7.90
2017-12-26T15:33:50.437Z,7.90
2017-12-26T15:36:18.758Z,7.90
2017-12-26T15:38:46.293Z,7.90
2017-12-26T15:41:13.832Z,7.90
2017-12-26T15:43:42.176Z,7.80
2017-12-26T15:46:09.719Z,7.80
2017-12-26T15:48:37.224Z,7.80
2017-12-26T15:51:05.645Z,7.70
2017-12-26T15:53:33.149Z,7.60
2017-12-26T15:56:00.804Z,7.60
2017-12-26T15:58:28.418Z,7.60
2017-12-26T16:00:56.131Z,7.60
2017-12-26T16:03:24.481Z,7.40
2017-12-26T16:05:52.023Z,7.40
2017-12-26T16:08:19.553Z,7.40
2017-12-26T16:10:47.132Z,7.30
2017-12-26T16:13:14.663Z,7.30
2017-12-26T16:15:42.198Z,7.30
2017-12-26T16:18:09.749Z,7.20
2017-12-26T16:20:37.264Z,7.10
2017-12-26T16:23:05.686Z,7.10
2017-12-26T16:25:33.227Z,7.00
2017-12-26T16:28:00.777Z,7.00
2017-12-26T16:30:28.294Z,7.00
2017-12-26T16:32:55.862Z,6.90
2017-12-26T16:35:23.424Z,6.90
2017-12-26T16:37:51.036Z,6.90
2017-12-26T16:40:18.559Z,6.90
2017-12-26T16:42:46.852Z,6.80
2017-12-26T16:45:14.378Z,6.80
2017-12-26T16:47:41.879Z,6.80
2017-12-26T16:50:09.421Z,6.90
2017-12-26T16:52:37.089Z,6.90
2017-12-26T16:55:04.619Z,6.80
2017-12-26T16:57:32.177Z,6.90
2017-12-26T16:59:59.694Z,6.80
2017-12-26T17:02:27.282Z,6.90
2017-12-26T17:04:54.954Z,6.80
2017-12-26T17:07:23.294Z,6.90
2017-12-26T17:09:51.595Z,6.90
2017-12-26T17:12:19.142Z,6.90
2017-12-26T17:14:46.764Z,6.90
2017-12-26T17:17:15.118Z,6.80
2017-12-26T17:19:42.928Z,6.80
2017-12-26T17:22:10.474Z,6.80
2017-12-26T17:24:38.754Z,6.70
2017-12-26T17:27:07.032Z,6.60
2017-12-26T17:29:35.821Z,6.60
2017-12-26T17:32:04.287Z,6.60
2017-12-26T17:34:32.594Z,6.50
2017-12-26T17:37:00.126Z,6.50
2017-12-26T17:39:28.403Z,6.40
2017-12-26T17:41:56.736Z,6.40
2017-12-26T17:44:24.296Z,6.30
2017-12-26T17:46:51.820Z,6.30
2017-12-26T17:49:19.406Z,6.30
2017-12-26T17:51:46.914Z,6.20
2017-12-26T17:54:15.218Z,6.10
2017-12-26T17:56:42.883Z,6.00
2017-12-26T17:59:10.422Z,6.10
2017-12-26T18:01:38.041Z,6.10
2017-12-26T18:04:05.567Z,6.10
2017-12-26T18:06:33.118Z,6.00
2017-12-26T18:09:00.619Z,6.00
2017-12-26T18:11:28.170Z,5.90
2017-12-26T18:13:55.854Z,5.90
2017-12-26T18:16:24.146Z,6.00
2017-12-26T18:18:51.694Z,5.90
2017-12-26T18:21:20.014Z,6.00
2017-12-26T18:23:47.623Z,6.00
2017-12-26T18:26:15.896Z,6.00
2017-12-26T18:31:17.263Z,5.90
2017-12-26T18:33:45.539Z,6.00
2017-12-26T18:36:13.826Z,6.00
2017-12-26T18:38:41.355Z,6.00
2017-12-26T18:41:08.919Z,6.00
2017-12-26T18:43:36.449Z,6.00
2017-12-26T18:46:03.988Z,6.00
2017-12-26T18:48:31.536Z,5.90
2017-12-26T18:50:59.046Z,5.90
2017-12-26T18:53:27.365Z,5.90
2017-12-26T18:55:54.926Z,5.90
2017-12-26T18:58:22.538Z,5.90
2017-12-26T19:00:50.067Z,5.80
2017-12-26T19:03:17.614Z,5.60
2017-12-26T19:05:45.128Z,5.70
2017-12-26T19:08:13.461Z,5.50
2017-12-26T19:10:40.967Z,5.50
2017-12-26T19:13:09.319Z,5.60
2017-12-26T19:15:36.849Z,5.50
2017-12-26T19:18:04.378Z,5.50
2017-12-26T19:20:32.676Z,5.50
2017-12-26T19:23:00.212Z,5.40
2017-12-26T19:25:30.853Z,5.40
2017-12-26T19:27:58.376Z,5.30
2017-12-26T19:30:25.953Z,5.30
2017-12-26T19:32:53.461Z,5.30
2017-12-26T19:35:20.980Z,5.30
2017-12-26T19:37:48.537Z,5.40
2017-12-26T19:40:16.099Z,5.30
2017-12-26T19:42:44.606Z,5.30
2017-12-26T19:45:12.137Z,5.30
2017-12-26T19:47:39.678Z,5.20
2017-12-26T19:50:07.179Z,5.20
2017-12-26T19:52:34.727Z,5.20
2017-12-26T19:55:02.305Z,5.10
2017-12-26T19:57:29.850Z,5.10
2017-12-26T19:59:57.371Z,5.00
2017-12-26T20:02:24.901Z,4.90
2017-12-26T20:04:53.205Z,4.90
2017-12-26T20:07:20.719Z,4.90
2017-12-26T20:09:48.248Z,4.90
2017-12-26T20:12:15.796Z,4.90
2017-12-26T20:14:43.300Z,4.80
2017-12-26T20:17:10.829Z,4.70
2017-12-26T20:19:38.368Z,4.70
2017-12-26T20:22:05.911Z,4.60
2017-12-26T20:24:34.218Z,4.70
2017-12-26T20:27:01.780Z,4.70
2017-12-26T20:29:29.317Z,4.70
2017-12-26T20:31:56.974Z,4.70
2017-12-26T20:34:24.535Z,4.80
2017-12-26T20:36:52.055Z,4.60
2017-12-26T20:39:20.349Z,4.40
2017-12-26T20:41:47.917Z,4.40
2017-12-26T20:44:15.432Z,4.30
2017-12-26T20:46:43.773Z,4.30
2017-12-26T20:49:11.305Z,4.30
2017-12-26T20:51:38.827Z,4.30
2017-12-26T20:54:07.131Z,4.10
2017-12-26T20:56:34.648Z,4.10
2017-12-26T20:59:02.227Z,4.10
2017-12-26T21:01:30.552Z,4.10
2017-12-26T21:03:58.109Z,4.00
2017-12-26T21:06:26.408Z,3.90
2017-12-26T21:08:53.992Z,3.90
2017-12-26T21:11:22.974Z,3.90
2017-12-26T21:13:51.345Z,3.80
2017-12-26T21:16:19.683Z,3.80
2017-12-26T21:18:47.221Z,3.80
2017-12-26T21:21:14.816Z,3.80
2017-12-26T21:23:43.468Z,3.70
2017-12-26T21:26:11.005Z,3.70
2017-12-26T21:28:39.300Z,3.60
2017-12-26T21:31:06.806Z,3.60
2017-12-26T21:33:34.322Z,3.60
2017-12-26T21:36:01.888Z,3.60
2017-12-26T21:38:30.185Z,3.60
2017-12-26T21:40:57.740Z,3.50
2017-12-26T21:43:25.275Z,3.50
2017-12-26T21:45:52.790Z,3.50
2017-12-26T21:48:21.082Z,3.40
2017-12-26T21:50:48.810Z,3.40
2017-12-26T21:53:16.477Z,3.40
2017-12-26T21:55:44.789Z,3.40
2017-12-26T21:58:12.308Z,3.40
2017-12-26T22:00:39.836Z,3.40
2017-12-26T22:03:07.376Z,3.30
2017-12-26T22:05:34.890Z,3.30
2017-12-26T22:08:02.654Z,3.30
2017-12-26T22:10:30.958Z,3.20
2017-12-26T22:12:58.482Z,3.20
2017-12-26T22:15:26.797Z,3.20
2017-12-26T22:17:54.332Z,3.20
2017-12-26T22:20:21.879Z,3.20
2017-12-26T22:22:50.425Z,3.10
2017-12-26T22:25:18.015Z,3.10
2017-12-26T22:27:46.360Z,3.10
2017-12-26T22:30:13.872Z,3.10
2017-12-26T22:32:41.420Z,3.10
2017-12-26T22:35:08.948Z,3.10
2017-12-26T22:37:36.523Z,3.00
2017-12-26T22:40:04.709Z,3.10
2017-12-26T22:42:33.011Z,3.10
2017-12-26T22:45:00.556Z,3.10
2017-12-26T22:47:28.104Z,3.10
2017-12-26T22:49:55.743Z,3.10
2017-12-26T22:52:24.061Z,3.00
2017-12-26T22:54:51.698Z,3.00
2017-12-26T22:57:19.991Z,3.00
2017-12-26T22:59:47.562Z,3.00
2017-12-26T23:02:15.096Z,3.00
2017-12-26T23:04:42.645Z,2.90
2017-12-26T23:07:10.930Z,3.00
2017-12-26T23:09:38.428Z,3.00
2017-12-26T23:12:05.979Z,3.00
2017-12-26T23:14:39.810Z,3.00
2017-12-26T23:17:13.853Z,3.00
2017-12-26T23:19:47.023Z,3.00
2017-12-26T23:22:15.370Z,3.00
2017-12-26T23:24:48.642Z,3.00
2017-12-26T23:27:21.933Z,2.90
2017-12-26T23:29:55.067Z,2.90
2017-12-26T23:35:27.946Z,2.90
2017-12-26T23:38:01.228Z,2.90
2017-12-26T23:43:38.298Z,2.90
2017-12-26T23:46:12.216Z,2.90
2017-12-26T23:48:46.040Z,3.00
2017-12-26T23:51:19.206Z,3.00
2017-12-26T23:53:53.073Z,3.00
2017-12-26T23:59:25.261Z,3.00
